createdAt,value
2022-10-19T00:00:08.064Z,284
2022-10-19T00:00:39.080Z,284
2022-10-19T00:00:55.472Z,284
2022-10-19T00:01:27.017Z,284
2022-10-19T00:01:43.148Z,284
2022-10-19T00:02:15.139Z,284
2022-10-19T00:02:47.055Z,284
2022-10-19T00:03:22.311Z,284
2022-10-19T00:03:51.147Z,283
2022-10-19T00:04:23.027Z,283
2022-10-19T00:04:54.982Z,283
2022-10-19T00:05:11.263Z,283
2022-10-19T00:05:42.794Z,283
2022-10-19T00:06:26.886Z,283
2022-10-19T00:06:58.887Z,283
2022-10-19T00:07:31.373Z,283
2022-10-19T00:08:03.211Z,283
2022-10-19T00:08:34.724Z,283
2022-10-19T00:09:06.609Z,283
2022-10-19T00:09:38.668Z,283
2022-10-19T00:09:54.891Z,283
2022-10-19T00:10:39.018Z,283
2022-10-19T00:11:10.775Z,283
2022-10-19T00:11:42.817Z,283
2022-10-19T00:12:14.614Z,283
2022-10-19T00:13:18.783Z,284
2022-10-19T00:13:50.597Z,284
2022-10-19T00:14:22.567Z,284
2022-10-19T00:14:54.562Z,284
2022-10-19T00:15:26.966Z,285
2022-10-19T00:15:58.389Z,285
2022-10-19T00:16:30.549Z,285
2022-10-19T00:17:03.232Z,285
2022-10-19T00:17:34.688Z,285
2022-10-19T00:18:06.269Z,285
2022-10-19T00:18:38.377Z,285
2022-10-19T00:18:54.448Z,285
2022-10-19T00:19:26.339Z,285
2022-10-19T00:19:42.499Z,285
2022-10-19T00:20:14.706Z,284
2022-10-19T00:20:46.252Z,284
2022-10-19T00:21:18.422Z,285
2022-10-19T00:22:22.580Z,284
2022-10-19T00:22:54.221Z,284
2022-10-19T00:23:26.357Z,284
2022-10-19T00:23:58.449Z,284
2022-10-19T00:24:30.254Z,284
2022-10-19T00:25:03.284Z,284
2022-10-19T00:25:34.271Z,284
2022-10-19T00:26:06.190Z,284
2022-10-19T00:26:38.097Z,284
2022-10-19T00:27:10.184Z,284
2022-10-19T00:27:42.089Z,284
2022-10-19T00:28:14.061Z,284
2022-10-19T00:28:46.018Z,284
2022-10-19T00:29:18.096Z,284
2022-10-19T00:29:49.931Z,284
2022-10-19T00:30:22.455Z,284
2022-10-19T00:30:53.842Z,284
2022-10-19T00:31:10.020Z,284
2022-10-19T00:31:53.846Z,284
2022-10-19T00:32:25.842Z,284
2022-10-19T00:32:57.876Z,284
2022-10-19T00:33:29.944Z,285
2022-10-19T00:34:02.257Z,285
2022-10-19T00:34:33.670Z,285
2022-10-19T00:35:05.923Z,285
2022-10-19T00:35:37.981Z,285
2022-10-19T00:36:09.604Z,285
2022-10-19T00:36:41.774Z,285
2022-10-19T00:37:13.694Z,285
2022-10-19T00:37:45.542Z,285
2022-10-19T00:38:17.702Z,285
2022-10-19T00:38:49.595Z,285
2022-10-19T00:39:21.899Z,285
2022-10-19T00:39:53.472Z,284
2022-10-19T00:40:09.772Z,284
2022-10-19T00:40:41.523Z,285
2022-10-19T00:41:25.524Z,277
2022-10-19T00:41:57.265Z,288
2022-10-19T00:42:29.468Z,313
2022-10-19T00:43:02.094Z,351
2022-10-19T00:43:33.483Z,352
2022-10-19T00:44:06.352Z,352
2022-10-19T00:44:37.202Z,354
2022-10-19T00:44:53.418Z,356
2022-10-19T00:45:37.742Z,354
2022-10-19T00:46:09.359Z,354
2022-10-19T00:46:41.277Z,354
2022-10-19T00:47:13.253Z,354
2022-10-19T00:47:45.388Z,354
2022-10-19T00:48:17.330Z,332
2022-10-19T00:49:26.144Z,282
2022-10-19T00:49:53.184Z,282
2022-10-19T00:50:25.391Z,282
2022-10-19T00:50:56.949Z,282
2022-10-19T00:51:28.950Z,282
2022-10-19T00:52:01.365Z,282
2022-10-19T00:52:33.427Z,282
2022-10-19T00:53:05.011Z,282
2022-10-19T00:53:36.959Z,282
2022-10-19T00:53:53.158Z,282
2022-10-19T00:54:24.833Z,282
2022-10-19T00:54:41.085Z,282
2022-10-19T00:55:13.045Z,282
2022-10-19T00:55:44.794Z,282
2022-10-19T00:56:16.841Z,282
2022-10-19T00:56:48.858Z,282
2022-10-19T00:57:20.944Z,282
2022-10-19T00:57:52.802Z,282
2022-10-19T00:58:08.844Z,282
2022-10-19T00:58:40.661Z,282
2022-10-19T00:59:24.686Z,282
2022-10-19T00:59:56.557Z,282
2022-10-19T01:00:28.928Z,282
2022-10-19T01:01:01.020Z,282
2022-10-19T01:01:33.078Z,282
2022-10-19T01:02:04.583Z,282
2022-10-19T01:02:36.825Z,282
2022-10-19T01:03:08.456Z,282
2022-10-19T01:03:40.492Z,282
2022-10-19T01:04:12.416Z,282
2022-10-19T01:04:44.375Z,282
2022-10-19T01:05:16.760Z,282
2022-10-19T01:05:48.507Z,282
2022-10-19T01:06:20.188Z,282
2022-10-19T01:06:52.565Z,282
2022-10-19T01:07:08.454Z,282
2022-10-19T01:07:52.642Z,282
2022-10-19T01:08:24.411Z,282
2022-10-19T01:08:56.171Z,282
2022-10-19T01:09:28.189Z,282
2022-10-19T01:10:01.054Z,282
2022-10-19T01:10:32.597Z,282
2022-10-19T01:11:04.361Z,282
2022-10-19T01:11:36.119Z,282
2022-10-19T01:11:52.444Z,282
2022-10-19T01:12:24.194Z,282
2022-10-19T01:12:40.234Z,282
2022-10-19T01:13:12.206Z,282
2022-10-19T01:13:44.053Z,282
2022-10-19T01:14:16.100Z,282
2022-10-19T01:14:48.315Z,282
2022-10-19T01:15:20.378Z,282
2022-10-19T01:16:08.146Z,282
2022-10-19T01:16:39.829Z,282
2022-10-19T01:17:24.032Z,282
2022-10-19T01:17:55.844Z,282
2022-10-19T01:18:27.903Z,282
2022-10-19T01:18:59.836Z,282
2022-10-19T01:19:31.957Z,282
2022-10-19T01:20:04.481Z,282
2022-10-19T01:20:35.668Z,282
2022-10-19T01:20:52.259Z,282
2022-10-19T01:21:35.786Z,282
2022-10-19T01:22:07.947Z,282
2022-10-19T01:22:39.632Z,282
2022-10-19T01:23:11.685Z,282
2022-10-19T01:23:43.821Z,282
2022-10-19T01:24:15.677Z,282
2022-10-19T01:24:47.625Z,282
2022-10-19T01:25:19.889Z,282
2022-10-19T01:25:51.750Z,282
2022-10-19T01:26:23.750Z,282
2022-10-19T01:26:55.340Z,282
2022-10-19T01:27:27.493Z,282
2022-10-19T01:27:59.458Z,282
2022-10-19T01:28:31.597Z,282
2022-10-19T01:29:04.288Z,282
2022-10-19T01:29:35.370Z,282
2022-10-19T01:29:51.564Z,283
2022-10-19T01:30:33.697Z,282
2022-10-19T01:30:39.489Z,282
2022-10-19T01:31:11.343Z,282
2022-10-19T01:31:43.152Z,282
2022-10-19T01:32:15.386Z,282
2022-10-19T01:32:47.432Z,282
2022-10-19T01:33:19.112Z,282
2022-10-19T01:33:51.305Z,282
2022-10-19T01:34:07.349Z,282
2022-10-19T01:34:39.255Z,282
2022-10-19T01:35:23.567Z,283
2022-10-19T01:35:55.050Z,283
2022-10-19T01:36:27.048Z,283
2022-10-19T01:36:59.297Z,282
2022-10-19T01:37:31.365Z,282
2022-10-19T01:38:03.754Z,282
2022-10-19T01:38:19.129Z,282
2022-10-19T01:38:51.222Z,282
2022-10-19T01:39:35.102Z,282
2022-10-19T01:40:07.396Z,282
2022-10-19T01:40:38.846Z,282
2022-10-19T01:41:11.216Z,282
2022-10-19T01:41:43.000Z,282
2022-10-19T01:42:15.101Z,282
2022-10-19T01:42:46.961Z,282
2022-10-19T01:43:18.895Z,282
2022-10-19T01:43:50.978Z,282
2022-10-19T01:44:23.112Z,282
2022-10-19T01:44:54.749Z,283
2022-10-19T01:45:27.009Z,318
2022-10-19T01:45:58.869Z,335
2022-10-19T01:46:30.975Z,335
2022-10-19T01:47:03.636Z,335
2022-10-19T01:47:35.047Z,335
2022-10-19T01:48:06.711Z,335
2022-10-19T01:48:38.773Z,335
2022-10-19T01:49:10.725Z,334
2022-10-19T01:49:42.625Z,334
2022-10-19T01:50:14.785Z,334
2022-10-19T01:50:46.718Z,334
2022-10-19T01:51:18.506Z,333
2022-10-19T01:51:50.556Z,316
2022-10-19T01:52:06.620Z,316
2022-10-19T01:52:38.452Z,316
2022-10-19T01:53:22.585Z,316
2022-10-19T01:53:54.340Z,316
2022-10-19T01:54:26.359Z,316
2022-10-19T01:54:58.263Z,316
2022-10-19T01:55:30.970Z,313
2022-10-19T01:56:02.991Z,313
2022-10-19T01:56:34.738Z,313
2022-10-19T01:56:50.492Z,313
2022-10-19T01:57:34.364Z,313
2022-10-19T01:58:08.421Z,285
2022-10-19T01:58:38.215Z,284
2022-10-19T01:59:10.276Z,284
2022-10-19T01:59:42.290Z,284
2022-10-19T02:00:15.612Z,284
2022-10-19T02:00:46.202Z,284
2022-10-19T02:01:18.116Z,284
2022-10-19T02:01:50.204Z,284
2022-10-19T02:02:22.494Z,284
2022-10-19T02:02:53.995Z,284
2022-10-19T02:03:25.966Z,284
2022-10-19T02:03:57.985Z,284
2022-10-19T02:04:30.190Z,284
2022-10-19T02:05:03.097Z,284
2022-10-19T02:05:33.996Z,284
2022-10-19T02:05:50.328Z,284
2022-10-19T02:06:22.236Z,284
2022-10-19T02:06:38.016Z,284
2022-10-19T02:07:09.883Z,284
2022-10-19T02:07:41.809Z,284
2022-10-19T02:08:13.884Z,284
2022-10-19T02:08:45.949Z,284
2022-10-19T02:09:17.677Z,284
2022-10-19T02:09:49.783Z,284
2022-10-19T02:10:06.126Z,284
2022-10-19T02:10:37.707Z,285
2022-10-19T02:11:21.983Z,285
2022-10-19T02:11:56.933Z,285
2022-10-19T02:12:30.822Z,285
2022-10-19T02:12:57.589Z,285
2022-10-19T02:13:29.549Z,285
2022-10-19T02:14:01.999Z,285
2022-10-19T02:14:33.741Z,285
2022-10-19T02:15:06.785Z,285
2022-10-19T02:15:37.388Z,285
2022-10-19T02:16:09.413Z,285
2022-10-19T02:16:41.524Z,285
2022-10-19T02:17:13.400Z,285
2022-10-19T02:17:45.611Z,295
2022-10-19T02:18:17.457Z,310
2022-10-19T02:18:49.396Z,310
2022-10-19T02:19:21.475Z,310
2022-10-19T02:19:53.312Z,310
2022-10-19T02:20:30.465Z,310
2022-10-19T02:20:57.273Z,309
2022-10-19T02:21:29.413Z,309
2022-10-19T02:22:01.759Z,309
2022-10-19T02:22:33.514Z,309
2022-10-19T02:23:05.328Z,309
2022-10-19T02:23:37.206Z,309
2022-10-19T02:24:09.029Z,309
2022-10-19T02:24:41.093Z,309
2022-10-19T02:25:13.312Z,309
2022-10-19T02:25:45.144Z,309
2022-10-19T02:26:17.006Z,309
2022-10-19T02:26:48.974Z,309
2022-10-19T02:27:05.222Z,309
2022-10-19T02:27:36.960Z,310
2022-10-19T02:28:21.141Z,310
2022-10-19T02:28:53.016Z,310
2022-10-19T02:29:24.944Z,310
2022-10-19T02:29:56.770Z,310
2022-10-19T02:30:29.432Z,310
2022-10-19T02:31:01.126Z,310
2022-10-19T02:31:32.922Z,310
2022-10-19T02:32:05.055Z,310
2022-10-19T02:32:36.883Z,310
2022-10-19T02:33:08.824Z,310
2022-10-19T02:33:40.924Z,309
2022-10-19T02:34:12.731Z,309
2022-10-19T02:34:44.662Z,309
2022-10-19T02:35:16.743Z,309
2022-10-19T02:35:48.730Z,309
2022-10-19T02:36:04.849Z,309
2022-10-19T02:36:48.688Z,309
2022-10-19T02:37:25.928Z,309
2022-10-19T02:37:52.600Z,309
2022-10-19T02:38:24.461Z,309
2022-10-19T02:38:56.492Z,309
2022-10-19T02:39:28.596Z,309
2022-10-19T02:40:00.865Z,309
2022-10-19T02:40:32.745Z,309
2022-10-19T02:41:04.714Z,309
2022-10-19T02:41:36.486Z,309
2022-10-19T02:42:08.229Z,309
2022-10-19T02:42:40.298Z,309
2022-10-19T02:43:12.524Z,309
2022-10-19T02:43:44.521Z,309
2022-10-19T02:44:16.308Z,309
2022-10-19T02:44:48.386Z,309
2022-10-19T02:45:06.288Z,309
2022-10-19T02:45:36.144Z,309
2022-10-19T02:46:20.429Z,309
2022-10-19T02:46:52.301Z,309
2022-10-19T02:47:24.088Z,309
2022-10-19T02:47:56.117Z,309
2022-10-19T02:48:28.255Z,309
2022-10-19T02:49:00.051Z,309
2022-10-19T02:49:32.114Z,309
2022-10-19T02:50:04.893Z,309
2022-10-19T02:50:36.162Z,309
2022-10-19T02:51:07.932Z,309
2022-10-19T02:51:40.123Z,309
2022-10-19T02:52:12.083Z,310
2022-10-19T02:52:43.979Z,310
2022-10-19T02:53:15.871Z,310
2022-10-19T02:53:47.949Z,310
2022-10-19T02:54:19.844Z,310
2022-10-19T02:54:52.020Z,310
2022-10-19T02:55:24.179Z,310
2022-10-19T02:55:55.849Z,309
2022-10-19T02:56:27.730Z,310
2022-10-19T02:56:59.942Z,309
2022-10-19T02:57:32.060Z,309
2022-10-19T02:57:47.994Z,309
2022-10-19T02:58:19.898Z,309
2022-10-19T02:59:04.520Z,309
2022-10-19T02:59:35.840Z,309
2022-10-19T03:00:08.781Z,309
2022-10-19T03:00:39.694Z,310
2022-10-19T03:01:11.782Z,310
2022-10-19T03:01:43.776Z,310
2022-10-19T03:02:15.741Z,310
2022-10-19T03:02:47.660Z,309
2022-10-19T03:03:04.392Z,310
2022-10-19T03:03:35.476Z,309
2022-10-19T03:04:19.657Z,310
2022-10-19T03:04:51.376Z,310
2022-10-19T03:05:24.003Z,310
2022-10-19T03:05:55.495Z,310
2022-10-19T03:06:27.445Z,310
2022-10-19T03:06:59.286Z,310
2022-10-19T03:07:31.740Z,309
2022-10-19T03:08:03.833Z,310
2022-10-19T03:08:35.338Z,309
2022-10-19T03:09:07.206Z,310
2022-10-19T03:09:39.336Z,309
2022-10-19T03:10:11.448Z,309
2022-10-19T03:10:43.383Z,309
2022-10-19T03:11:15.137Z,310
2022-10-19T03:11:47.205Z,309
2022-10-19T03:12:04.090Z,309
2022-10-19T03:12:47.222Z,309
2022-10-19T03:13:19.138Z,310
2022-10-19T03:13:35.071Z,309
2022-10-19T03:14:07.249Z,309
2022-10-19T03:14:51.109Z,309
2022-10-19T03:15:23.529Z,309
2022-10-19T03:15:55.076Z,309
2022-10-19T03:16:26.910Z,309
2022-10-19T03:16:58.947Z,309
2022-10-19T03:17:31.185Z,309
2022-10-19T03:18:03.830Z,309
2022-10-19T03:18:34.843Z,309
2022-10-19T03:19:06.841Z,309
2022-10-19T03:19:39.080Z,309
2022-10-19T03:20:11.081Z,309
2022-10-19T03:20:42.861Z,309
2022-10-19T03:21:14.790Z,309
2022-10-19T03:21:46.821Z,309
2022-10-19T03:22:18.820Z,309
2022-10-19T03:22:50.772Z,309
2022-10-19T03:23:06.934Z,309
2022-10-19T03:23:38.768Z,309
2022-10-19T03:24:22.929Z,309
2022-10-19T03:24:54.508Z,310
2022-10-19T03:25:26.691Z,309
2022-10-19T03:25:58.652Z,309
2022-10-19T03:26:30.716Z,309
2022-10-19T03:27:03.960Z,309
2022-10-19T03:27:34.650Z,309
2022-10-19T03:28:06.500Z,309
2022-10-19T03:28:38.765Z,309
2022-10-19T03:29:10.407Z,309
2022-10-19T03:29:42.640Z,309
2022-10-19T03:30:15.538Z,309
2022-10-19T03:30:46.496Z,309
2022-10-19T03:31:18.490Z,309
2022-10-19T03:31:50.445Z,309
2022-10-19T03:32:22.589Z,309
2022-10-19T03:32:54.385Z,309
2022-10-19T03:33:58.162Z,309
2022-10-19T03:34:30.354Z,309
2022-10-19T03:35:03.716Z,309
2022-10-19T03:35:34.231Z,309
2022-10-19T03:36:06.183Z,309
2022-10-19T03:36:38.149Z,309
2022-10-19T03:37:10.179Z,309
2022-10-19T03:37:42.320Z,309
2022-10-19T03:38:13.939Z,309
2022-10-19T03:38:46.005Z,309
2022-10-19T03:39:18.100Z,309
2022-10-19T03:39:50.088Z,309
2022-10-19T03:40:22.326Z,309
2022-10-19T03:40:54.059Z,309
2022-10-19T03:41:25.904Z,309
2022-10-19T03:41:57.919Z,309
2022-10-19T03:42:29.838Z,309
2022-10-19T03:42:45.947Z,309
2022-10-19T03:43:29.888Z,309
2022-10-19T03:44:02.824Z,309
2022-10-19T03:44:33.767Z,309
2022-10-19T03:45:06.991Z,309
2022-10-19T03:45:37.796Z,309
2022-10-19T03:46:09.769Z,309
2022-10-19T03:46:41.844Z,309
2022-10-19T03:47:13.774Z,309
2022-10-19T03:47:45.685Z,309
2022-10-19T03:48:17.870Z,309
2022-10-19T03:48:49.606Z,309
2022-10-19T03:49:21.589Z,309
2022-10-19T03:49:53.685Z,309
2022-10-19T03:50:25.790Z,309
2022-10-19T03:50:57.404Z,309
2022-10-19T03:51:29.401Z,309
2022-10-19T03:51:45.676Z,309
2022-10-19T03:52:17.501Z,309
2022-10-19T03:52:33.597Z,309
2022-10-19T03:53:05.402Z,309
2022-10-19T03:53:37.494Z,309
2022-10-19T03:54:09.488Z,309
2022-10-19T03:54:41.552Z,309
2022-10-19T03:55:13.611Z,309
2022-10-19T03:55:45.309Z,309
2022-10-19T03:56:02.251Z,309
2022-10-19T03:56:36.517Z,309
2022-10-19T03:57:17.455Z,309
2022-10-19T03:57:49.235Z,309
2022-10-19T03:58:21.363Z,309
2022-10-19T03:58:53.260Z,309
2022-10-19T03:59:25.212Z,309
2022-10-19T03:59:57.073Z,309
2022-10-19T04:00:29.317Z,309
2022-10-19T04:01:02.075Z,309
2022-10-19T04:01:33.360Z,309
2022-10-19T04:02:05.226Z,309
2022-10-19T04:02:36.951Z,309
2022-10-19T04:03:09.038Z,309
2022-10-19T04:03:41.197Z,309
2022-10-19T04:04:12.921Z,309
2022-10-19T04:04:44.902Z,309
2022-10-19T04:05:01.745Z,309
2022-10-19T04:05:44.962Z,309
2022-10-19T04:06:19.772Z,309
2022-10-19T04:06:48.895Z,309
2022-10-19T04:07:20.937Z,309
2022-10-19T04:07:53.012Z,309
2022-10-19T04:08:24.899Z,309
2022-10-19T04:08:56.695Z,309
2022-10-19T04:09:28.720Z,309
2022-10-19T04:10:01.511Z,309
2022-10-19T04:10:32.912Z,309
2022-10-19T04:11:05.221Z,309
2022-10-19T04:11:36.695Z,309
2022-10-19T04:12:08.664Z,309
2022-10-19T04:12:40.707Z,309
2022-10-19T04:13:12.770Z,309
2022-10-19T04:13:44.703Z,309
2022-10-19T04:14:26.656Z,309
2022-10-19T04:14:57.236Z,309
2022-10-19T04:15:20.918Z,309
2022-10-19T04:15:52.643Z,309
2022-10-19T04:16:24.610Z,309
2022-10-19T04:16:56.336Z,309
2022-10-19T04:17:28.306Z,309
2022-10-19T04:18:00.448Z,309
2022-10-19T04:18:32.571Z,310
2022-10-19T04:19:05.013Z,310
2022-10-19T04:19:36.344Z,310
2022-10-19T04:20:08.615Z,310
2022-10-19T04:20:40.333Z,309
2022-10-19T04:21:12.517Z,309
2022-10-19T04:21:44.448Z,309
2022-10-19T04:22:00.459Z,309
2022-10-19T04:22:44.325Z,309
2022-10-19T04:23:48.170Z,309
2022-10-19T04:24:20.205Z,309
2022-10-19T04:24:52.252Z,309
2022-10-19T04:25:24.414Z,309
2022-10-19T04:25:56.023Z,309
2022-10-19T04:26:27.982Z,309
2022-10-19T04:27:00.028Z,309
2022-10-19T04:27:32.452Z,309
2022-10-19T04:28:04.626Z,309
2022-10-19T04:28:35.857Z,309
2022-10-19T04:29:08.095Z,309
2022-10-19T04:29:40.127Z,309
2022-10-19T04:30:13.082Z,309
2022-10-19T04:30:43.969Z,309
2022-10-19T04:31:00.175Z,309
2022-10-19T04:31:31.890Z,310
2022-10-19T04:32:15.910Z,309
2022-10-19T04:32:48.041Z,309
2022-10-19T04:33:19.790Z,309
2022-10-19T04:33:51.909Z,309
2022-10-19T04:34:23.969Z,309
2022-10-19T04:34:55.636Z,309
2022-10-19T04:35:27.956Z,309
2022-10-19T04:35:59.705Z,309
2022-10-19T04:36:31.785Z,309
2022-10-19T04:37:04.773Z,309
2022-10-19T04:37:35.800Z,309
2022-10-19T04:38:07.674Z,309
2022-10-19T04:38:39.643Z,309
2022-10-19T04:39:11.744Z,309
2022-10-19T04:39:43.695Z,309
2022-10-19T04:39:59.589Z,309
2022-10-19T04:40:43.911Z,309
2022-10-19T04:41:15.464Z,309
2022-10-19T04:41:47.490Z,309
2022-10-19T04:42:19.353Z,309
2022-10-19T04:42:51.487Z,309
2022-10-19T04:43:23.633Z,309
2022-10-19T04:43:55.328Z,309
2022-10-19T04:44:27.288Z,309
2022-10-19T04:44:59.277Z,309
2022-10-19T04:45:31.697Z,309
2022-10-19T04:46:03.993Z,309
2022-10-19T04:46:35.230Z,310
2022-10-19T04:47:07.172Z,310
2022-10-19T04:47:39.250Z,311
2022-10-19T04:48:14.542Z,311
2022-10-19T04:48:43.207Z,311
2022-10-19T04:48:59.156Z,311
2022-10-19T04:49:31.136Z,311
2022-10-19T04:50:15.465Z,311
2022-10-19T04:50:46.984Z,310
2022-10-19T04:51:19.117Z,311
2022-10-19T04:51:51.138Z,311
2022-10-19T04:52:23.158Z,311
2022-10-19T04:52:54.978Z,311
2022-10-19T04:53:11.211Z,311
2022-10-19T04:53:43.088Z,320
2022-10-19T04:54:26.907Z,322
2022-10-19T04:54:58.904Z,322
2022-10-19T04:55:31.173Z,322
2022-10-19T04:56:03.922Z,322
2022-10-19T04:56:34.859Z,322
2022-10-19T04:57:06.821Z,322
2022-10-19T04:57:38.632Z,322
2022-10-19T04:58:10.713Z,322
2022-10-19T04:58:42.795Z,322
2022-10-19T04:59:14.802Z,322
2022-10-19T04:59:46.532Z,322
2022-10-19T05:00:19.663Z,322
2022-10-19T05:00:50.768Z,322
2022-10-19T05:01:22.752Z,322
2022-10-19T05:01:54.595Z,322
2022-10-19T05:02:26.463Z,322
2022-10-19T05:02:58.517Z,322
2022-10-19T05:03:30.698Z,322
2022-10-19T05:04:03.158Z,321
2022-10-19T05:04:34.443Z,321
2022-10-19T05:05:06.836Z,321
2022-10-19T05:05:38.738Z,321
2022-10-19T05:06:10.386Z,321
2022-10-19T05:06:42.420Z,322
2022-10-19T05:06:58.424Z,322
2022-10-19T05:07:30.252Z,322
2022-10-19T05:08:14.452Z,322
2022-10-19T05:08:46.201Z,322
2022-10-19T05:09:18.237Z,322
2022-10-19T05:09:50.288Z,323
2022-10-19T05:10:22.567Z,323
2022-10-19T05:10:54.155Z,2
2022-10-19T05:11:26.219Z,2
2022-10-19T05:11:42.352Z,2
2022-10-19T05:12:26.103Z,2
2022-10-19T05:12:58.127Z,1
2022-10-19T05:13:30.007Z,1
2022-10-19T05:14:02.899Z,1
2022-10-19T05:14:35.799Z,1
2022-10-19T05:15:07.082Z,1
2022-10-19T05:15:37.982Z,1
2022-10-19T05:16:09.966Z,1
2022-10-19T05:16:41.969Z,1
2022-10-19T05:17:14.146Z,1
2022-10-19T05:17:45.827Z,1
2022-10-19T05:18:17.916Z,1
2022-10-19T05:18:49.830Z,1
2022-10-19T05:19:21.957Z,1
2022-10-19T05:19:53.872Z,1
2022-10-19T05:20:25.971Z,3
2022-10-19T05:20:57.682Z,29
2022-10-19T05:21:29.761Z,29
2022-10-19T05:22:02.255Z,29
2022-10-19T05:22:33.716Z,29
2022-10-19T05:23:07.389Z,29
2022-10-19T05:23:37.737Z,29
2022-10-19T05:24:09.537Z,29
2022-10-19T05:24:41.665Z,29
2022-10-19T05:24:58.273Z,29
2022-10-19T05:25:29.749Z,29
2022-10-19T05:26:13.733Z,29
2022-10-19T05:26:45.445Z,29
2022-10-19T05:27:17.538Z,29
2022-10-19T05:27:49.584Z,29
2022-10-19T05:28:21.657Z,29
2022-10-19T05:28:53.462Z,29
2022-10-19T05:29:25.333Z,29
2022-10-19T05:29:41.808Z,29
2022-10-19T05:30:25.770Z,29
2022-10-19T05:30:57.479Z,29
2022-10-19T05:31:29.376Z,29
2022-10-19T05:32:01.843Z,29
2022-10-19T05:32:33.432Z,29
2022-10-19T05:33:05.703Z,29
2022-10-19T05:33:37.319Z,29
2022-10-19T05:34:09.246Z,28
2022-10-19T05:34:41.310Z,29
2022-10-19T05:35:15.476Z,29
2022-10-19T05:35:45.041Z,29
2022-10-19T05:36:17.133Z,37
2022-10-19T05:36:49.303Z,37
2022-10-19T05:37:21.427Z,58
2022-10-19T05:37:53.075Z,70
2022-10-19T05:38:25.249Z,70
2022-10-19T05:38:57.088Z,70
2022-10-19T05:39:29.146Z,70
2022-10-19T05:40:01.751Z,49
2022-10-19T05:40:33.244Z,36
2022-10-19T05:41:05.663Z,36
2022-10-19T05:41:36.964Z,36
2022-10-19T05:42:08.913Z,36
2022-10-19T05:42:40.940Z,36
2022-10-19T05:42:57.006Z,37
2022-10-19T05:43:28.899Z,37
2022-10-19T05:44:12.763Z,37
2022-10-19T05:44:28.943Z,37
2022-10-19T05:45:14.387Z,54
2022-10-19T05:45:28.912Z,87
2022-10-19T05:46:06.731Z,113
2022-10-19T05:46:38.698Z,122
2022-10-19T05:46:56.835Z,111
2022-10-19T05:47:30.971Z,97
2022-10-19T05:48:12.850Z,97
2022-10-19T05:48:28.712Z,97
2022-10-19T05:49:12.849Z,96
2022-10-19T05:49:44.774Z,93
2022-10-19T05:50:16.771Z,94
2022-10-19T05:50:48.566Z,93
2022-10-19T05:51:20.548Z,93
2022-10-19T05:51:52.829Z,93
2022-10-19T05:52:24.427Z,93
2022-10-19T05:52:40.563Z,93
2022-10-19T05:53:27.104Z,93
2022-10-19T05:53:56.633Z,93
2022-10-19T05:54:28.804Z,93
2022-10-19T05:55:00.574Z,93
2022-10-19T05:55:32.988Z,93
2022-10-19T05:56:05.255Z,93
2022-10-19T05:56:36.578Z,93
2022-10-19T05:57:08.431Z,93
2022-10-19T05:57:40.429Z,93
2022-10-19T05:57:56.418Z,93
2022-10-19T05:58:40.597Z,93
2022-10-19T05:59:12.610Z,93
2022-10-19T05:59:44.904Z,93
2022-10-19T06:00:22.351Z,93
2022-10-19T06:00:48.468Z,75
2022-10-19T06:01:20.347Z,104
2022-10-19T06:01:52.519Z,103
2022-10-19T06:02:24.447Z,113
2022-10-19T06:02:40.671Z,99
2022-10-19T06:03:12.389Z,127
2022-10-19T06:03:28.344Z,58
2022-10-19T06:04:00.131Z,94
2022-10-19T06:04:32.468Z,93
2022-10-19T06:05:06.454Z,94
2022-10-19T06:05:36.269Z,97
2022-10-19T06:06:08.068Z,88
2022-10-19T06:06:40.108Z,88
2022-10-19T06:06:56.219Z,88
2022-10-19T06:07:28.007Z,88
2022-10-19T06:08:12.238Z,88
2022-10-19T06:08:44.102Z,88
2022-10-19T06:09:15.907Z,88
2022-10-19T06:09:47.977Z,88
2022-10-19T06:10:25.252Z,88
2022-10-19T06:10:52.128Z,88
2022-10-19T06:11:23.967Z,88
2022-10-19T06:11:55.812Z,88
2022-10-19T06:12:27.817Z,88
2022-10-19T06:12:59.698Z,88
2022-10-19T06:13:31.941Z,91
2022-10-19T06:14:04.564Z,121
2022-10-19T06:14:35.859Z,122
2022-10-19T06:15:08.458Z,94
2022-10-19T06:15:39.607Z,94
2022-10-19T06:15:56.123Z,94
2022-10-19T06:16:39.685Z,94
2022-10-19T06:17:12.041Z,93
2022-10-19T06:17:43.536Z,94
2022-10-19T06:18:15.666Z,94
2022-10-19T06:18:47.698Z,127
2022-10-19T06:19:19.633Z,96
2022-10-19T06:19:51.622Z,78
2022-10-19T06:20:23.778Z,78
2022-10-19T06:20:55.369Z,65
2022-10-19T06:21:27.611Z,46
2022-10-19T06:21:59.253Z,46
2022-10-19T06:22:31.644Z,51
2022-10-19T06:23:04.544Z,75
2022-10-19T06:23:35.335Z,70
2022-10-19T06:24:07.355Z,91
2022-10-19T06:24:39.444Z,102
2022-10-19T06:25:13.808Z,88
2022-10-19T06:25:43.369Z,83
2022-10-19T06:26:15.261Z,68
2022-10-19T06:26:47.249Z,67
2022-10-19T06:27:19.331Z,67
2022-10-19T06:27:51.522Z,67
2022-10-19T06:28:23.227Z,67
2022-10-19T06:28:55.171Z,67
2022-10-19T06:29:27.081Z,67
2022-10-19T06:29:59.158Z,67
2022-10-19T06:30:31.509Z,67
2022-10-19T06:31:07.164Z,67
2022-10-19T06:31:35.143Z,67
2022-10-19T06:32:07.115Z,67
2022-10-19T06:32:39.092Z,67
2022-10-19T06:32:55.137Z,67
2022-10-19T06:33:39.093Z,67
2022-10-19T06:34:11.273Z,69
2022-10-19T06:34:43.098Z,68
2022-10-19T06:35:15.134Z,67
2022-10-19T06:35:46.933Z,68
2022-10-19T06:36:18.901Z,72
2022-10-19T06:36:51.198Z,72
2022-10-19T06:37:22.813Z,72
2022-10-19T06:37:54.896Z,72
2022-10-19T06:38:26.724Z,72
2022-10-19T06:38:58.802Z,72
2022-10-19T06:39:30.838Z,72
2022-10-19T06:40:10.215Z,72
2022-10-19T06:40:34.746Z,72
2022-10-19T06:41:06.797Z,72
2022-10-19T06:41:38.487Z,72
2022-10-19T06:41:54.763Z,72
2022-10-19T06:42:26.709Z,72
2022-10-19T06:43:10.658Z,72
2022-10-19T06:43:42.907Z,72
2022-10-19T06:44:14.562Z,72
2022-10-19T06:44:46.404Z,72
2022-10-19T06:45:21.815Z,72
2022-10-19T06:45:50.522Z,72
2022-10-19T06:46:22.437Z,72
2022-10-19T06:46:38.657Z,72
2022-10-19T06:47:22.570Z,72
2022-10-19T06:47:54.544Z,73
2022-10-19T06:48:26.443Z,72
2022-10-19T06:48:58.175Z,73
2022-10-19T06:49:30.329Z,89
2022-10-19T06:50:05.837Z,102
2022-10-19T06:50:34.265Z,102
2022-10-19T06:51:06.620Z,102
2022-10-19T06:51:38.306Z,101
2022-10-19T06:52:10.156Z,102
2022-10-19T06:52:42.266Z,102
2022-10-19T06:53:14.291Z,102
2022-10-19T06:53:46.223Z,102
2022-10-19T06:54:18.208Z,102
2022-10-19T06:54:50.291Z,102
2022-10-19T06:55:26.258Z,102
2022-10-19T06:55:53.984Z,102
2022-10-19T06:56:26.169Z,102
2022-10-19T06:56:58.076Z,102
2022-10-19T06:57:29.876Z,102
2022-10-19T06:58:02.735Z,102
2022-10-19T06:58:34.162Z,102
2022-10-19T06:59:06.209Z,102
2022-10-19T06:59:37.883Z,102
2022-10-19T06:59:54.104Z,102
2022-10-19T07:00:26.215Z,102
2022-10-19T07:01:09.903Z,102
2022-10-19T07:01:41.902Z,102
2022-10-19T07:02:13.615Z,102
2022-10-19T07:02:45.888Z,12
2022-10-19T07:03:17.800Z,54
2022-10-19T07:03:49.743Z,54
2022-10-19T07:04:21.724Z,54
2022-10-19T07:04:53.744Z,54
2022-10-19T07:05:25.878Z,55
2022-10-19T07:05:57.712Z,56
2022-10-19T07:06:29.515Z,56
2022-10-19T07:07:02.309Z,56
2022-10-19T07:07:33.965Z,56
2022-10-19T07:08:05.889Z,56
2022-10-19T07:08:37.329Z,56
2022-10-19T07:08:53.619Z,56
2022-10-19T07:09:37.467Z,56
2022-10-19T07:10:10.130Z,56
2022-10-19T07:10:45.308Z,56
2022-10-19T07:11:13.335Z,56
2022-10-19T07:11:46.117Z,56
2022-10-19T07:12:17.492Z,56
2022-10-19T07:12:49.480Z,56
2022-10-19T07:13:21.493Z,56
2022-10-19T07:13:37.468Z,56
2022-10-19T07:14:09.284Z,56
2022-10-19T07:14:25.440Z,56
2022-10-19T07:14:57.342Z,56
2022-10-19T07:15:32.176Z,56
2022-10-19T07:16:01.693Z,56
2022-10-19T07:16:33.269Z,56
2022-10-19T07:17:05.653Z,56
2022-10-19T07:17:37.209Z,56
2022-10-19T07:17:53.296Z,56
2022-10-19T07:18:25.099Z,56
2022-10-19T07:19:09.152Z,56
2022-10-19T07:19:41.128Z,56